sensor_id;sensor_type;location;lat;lon;timestamp;temperature;humidity
26907;DHT22;14472;56.880;16.658;2024-03-02T00:02:15;2.80;99.90
26907;DHT22;14472;56.880;16.658;2024-03-02T00:04:44;2.70;99.90
26907;DHT22;14472;56.880;16.658;2024-03-02T00:07:11;2.60;99.90
26907;DHT22;14472;56.880;16.658;2024-03-02T00:09:39;2.70;99.90
26907;DHT22;14472;56.880;16.658;2024-03-02T00:12:05;2.70;99.90
26907;DHT22;14472;56.880;16.658;2024-03-02T00:14:31;2.60;99.90
26907;DHT22;14472;56.880;16.658;2024-03-02T00:16:57;2.60;99.90
26907;DHT22;14472;56.880;16.658;2024-03-02T00:19:22;2.60;99.90
26907;DHT22;14472;56.880;16.658;2024-03-02T00:21:48;2.50;99.90
26907;DHT22;14472;56.880;16.658;2024-03-02T00:24:27;2.50;99.90
26907;DHT22;14472;56.880;16.658;2024-03-02T00:26:56;2.70;99.90
26907;DHT22;14472;56.880;16.658;2024-03-02T00:29:22;2.60;99.90
26907;DHT22;14472;56.880;16.658;2024-03-02T00:31:48;2.60;99.90
26907;DHT22;14472;56.880;16.658;2024-03-02T00:34:14;2.50;99.90
26907;DHT22;14472;56.880;16.658;2024-03-02T00:36:41;2.50;99.90
26907;DHT22;14472;56.880;16.658;2024-03-02T00:39:07;2.60;99.90
26907;DHT22;14472;56.880;16.658;2024-03-02T00:41:33;2.40;99.90
26907;DHT22;14472;56.880;16.658;2024-03-02T00:44:03;2.40;99.90
26907;DHT22;14472;56.880;16.658;2024-03-02T00:46:34;2.40;99.90
26907;DHT22;14472;56.880;16.658;2024-03-02T00:49:03;2.40;99.90
26907;DHT22;14472;56.880;16.658;2024-03-02T00:51:30;2.40;99.90
26907;DHT22;14472;56.880;16.658;2024-03-02T00:54:02;2.40;99.90
26907;DHT22;14472;56.880;16.658;2024-03-02T00:56:29;2.40;99.90
26907;DHT22;14472;56.880;16.658;2024-03-02T00:58:55;2.30;99.90
26907;DHT22;14472;56.880;16.658;2024-03-02T01:01:21;2.30;99.90
26907;DHT22;14472;56.880;16.658;2024-03-02T01:03:47;2.20;99.90
26907;DHT22;14472;56.880;16.658;2024-03-02T01:06:13;2.20;99.90
26907;DHT22;14472;56.880;16.658;2024-03-02T01:08:38;2.20;99.90
26907;DHT22;14472;56.880;16.658;2024-03-02T01:11:04;2.30;99.90
26907;DHT22;14472;56.880;16.658;2024-03-02T01:13:30;2.20;99.90
26907;DHT22;14472;56.880;16.658;2024-03-02T01:15:56;2.20;99.90
26907;DHT22;14472;56.880;16.658;2024-03-02T01:18:22;2.10;99.90
26907;DHT22;14472;56.880;16.658;2024-03-02T01:20:49;2.10;99.90
26907;DHT22;14472;56.880;16.658;2024-03-02T01:23:19;2.40;99.90
26907;DHT22;14472;56.880;16.658;2024-03-02T01:25:48;2.60;99.90
26907;DHT22;14472;56.880;16.658;2024-03-02T01:28:14;2.90;99.90
26907;DHT22;14472;56.880;16.658;2024-03-02T01:30:40;3.00;99.90
26907;DHT22;14472;56.880;16.658;2024-03-02T01:33:06;3.00;99.90
26907;DHT22;14472;56.880;16.658;2024-03-02T01:35:32;3.30;99.90
26907;DHT22;14472;56.880;16.658;2024-03-02T01:37:58;3.70;99.90
26907;DHT22;14472;56.880;16.658;2024-03-02T01:40:24;4.00;99.90
26907;DHT22;14472;56.880;16.658;2024-03-02T01:42:53;3.90;99.90
26907;DHT22;14472;56.880;16.658;2024-03-02T01:45:25;3.90;99.90
26907;DHT22;14472;56.880;16.658;2024-03-02T01:47:50;3.90;99.90
26907;DHT22;14472;56.880;16.658;2024-03-02T01:50:25;4.20;99.90
26907;DHT22;14472;56.880;16.658;2024-03-02T01:52:51;4.40;99.90
26907;DHT22;14472;56.880;16.658;2024-03-02T01:55:17;4.30;99.90
26907;DHT22;14472;56.880;16.658;2024-03-02T01:57:42;4.20;99.90
26907;DHT22;14472;56.880;16.658;2024-03-02T02:00:10;4.10;99.90
26907;DHT22;14472;56.880;16.658;2024-03-02T02:02:36;4.10;99.90
26907;DHT22;14472;56.880;16.658;2024-03-02T02:05:02;4.40;99.90
26907;DHT22;14472;56.880;16.658;2024-03-02T02:07:29;4.40;99.90
26907;DHT22;14472;56.880;16.658;2024-03-02T02:09:54;4.20;99.90
26907;DHT22;14472;56.880;16.658;2024-03-02T02:12:20;4.10;99.90
26907;DHT22;14472;56.880;16.658;2024-03-02T02:14:49;4.10;99.90
26907;DHT22;14472;56.880;16.658;2024-03-02T02:17:16;4.10;99.90
26907;DHT22;14472;56.880;16.658;2024-03-02T02:19:42;4.20;99.90
26907;DHT22;14472;56.880;16.658;2024-03-02T02:22:08;4.30;99.90
26907;DHT22;14472;56.880;16.658;2024-03-02T02:24:34;4.20;99.90
26907;DHT22;14472;56.880;16.658;2024-03-02T02:26:59;4.30;99.90
26907;DHT22;14472;56.880;16.658;2024-03-02T02:29:25;4.20;99.90
26907;DHT22;14472;56.880;16.658;2024-03-02T02:31:51;4.30;99.90
26907;DHT22;14472;56.880;16.658;2024-03-02T02:34:16;4.30;99.90
26907;DHT22;14472;56.880;16.658;2024-03-02T02:36:42;4.30;99.90
26907;DHT22;14472;56.880;16.658;2024-03-02T02:39:12;4.40;99.90
26907;DHT22;14472;56.880;16.658;2024-03-02T02:41:39;4.40;99.90
26907;DHT22;14472;56.880;16.658;2024-03-02T02:44:05;4.40;99.90
26907;DHT22;14472;56.880;16.658;2024-03-02T02:46:30;4.50;99.90
26907;DHT22;14472;56.880;16.658;2024-03-02T02:48:56;4.50;99.90
26907;DHT22;14472;56.880;16.658;2024-03-02T02:51:22;4.50;99.90
26907;DHT22;14472;56.880;16.658;2024-03-02T02:53:47;4.60;99.90
26907;DHT22;14472;56.880;16.658;2024-03-02T02:56:13;4.60;99.90
26907;DHT22;14472;56.880;16.658;2024-03-02T02:58:40;4.70;99.90
26907;DHT22;14472;56.880;16.658;2024-03-02T03:01:07;4.70;99.90
26907;DHT22;14472;56.880;16.658;2024-03-02T03:03:33;4.80;99.90
26907;DHT22;14472;56.880;16.658;2024-03-02T03:05:59;4.80;99.90
26907;DHT22;14472;56.880;16.658;2024-03-02T03:08:24;4.80;99.90
26907;DHT22;14472;56.880;16.658;2024-03-02T03:10:50;4.90;99.90
26907;DHT22;14472;56.880;16.658;2024-03-02T03:13:16;4.90;99.90
26907;DHT22;14472;56.880;16.658;2024-03-02T03:15:42;4.90;99.90
26907;DHT22;14472;56.880;16.658;2024-03-02T03:18:07;4.90;99.90
26907;DHT22;14472;56.880;16.658;2024-03-02T03:20:36;5.00;99.90
26907;DHT22;14472;56.880;16.658;2024-03-02T03:23:01;5.00;99.90
26907;DHT22;14472;56.880;16.658;2024-03-02T03:25:29;5.00;99.90
26907;DHT22;14472;56.880;16.658;2024-03-02T03:27:55;5.00;99.90
26907;DHT22;14472;56.880;16.658;2024-03-02T03:30:21;5.00;99.90
26907;DHT22;14472;56.880;16.658;2024-03-02T03:32:46;5.00;99.90
26907;DHT22;14472;56.880;16.658;2024-03-02T03:35:13;5.10;99.90
26907;DHT22;14472;56.880;16.658;2024-03-02T03:37:41;5.00;99.90
26907;DHT22;14472;56.880;16.658;2024-03-02T03:40:07;5.10;99.90
26907;DHT22;14472;56.880;16.658;2024-03-02T03:42:38;5.10;99.90
26907;DHT22;14472;56.880;16.658;2024-03-02T03:45:05;5.10;99.90
26907;DHT22;14472;56.880;16.658;2024-03-02T03:47:32;5.10;99.90
26907;DHT22;14472;56.880;16.658;2024-03-02T03:49:58;5.10;99.90
26907;DHT22;14472;56.880;16.658;2024-03-02T03:52:24;5.10;99.90
26907;DHT22;14472;56.880;16.658;2024-03-02T03:54:50;5.10;99.90
26907;DHT22;14472;56.880;16.658;2024-03-02T03:57:16;5.10;99.90
26907;DHT22;14472;56.880;16.658;2024-03-02T03:59:42;5.20;99.90
26907;DHT22;14472;56.880;16.658;2024-03-02T04:02:08;5.10;99.90
26907;DHT22;14472;56.880;16.658;2024-03-02T04:04:34;5.10;99.90
26907;DHT22;14472;56.880;16.658;2024-03-02T04:07:00;5.20;99.90
26907;DHT22;14472;56.880;16.658;2024-03-02T04:09:26;5.20;99.90
26907;DHT22;14472;56.880;16.658;2024-03-02T04:11:52;5.20;99.90
26907;DHT22;14472;56.880;16.658;2024-03-02T04:14:18;5.20;99.90
26907;DHT22;14472;56.880;16.658;2024-03-02T04:16:44;5.20;99.90
26907;DHT22;14472;56.880;16.658;2024-03-02T04:19:09;5.20;99.90
26907;DHT22;14472;56.880;16.658;2024-03-02T04:21:35;5.20;99.90
26907;DHT22;14472;56.880;16.658;2024-03-02T04:24:01;5.30;99.90
26907;DHT22;14472;56.880;16.658;2024-03-02T04:26:27;5.30;99.90
26907;DHT22;14472;56.880;16.658;2024-03-02T04:28:53;5.30;99.90
26907;DHT22;14472;56.880;16.658;2024-03-02T04:31:20;5.30;99.90
26907;DHT22;14472;56.880;16.658;2024-03-02T04:33:45;5.30;99.90
26907;DHT22;14472;56.880;16.658;2024-03-02T04:36:11;5.30;99.90
26907;DHT22;14472;56.880;16.658;2024-03-02T04:38:38;5.30;99.90
26907;DHT22;14472;56.880;16.658;2024-03-02T04:41:07;5.30;99.90
26907;DHT22;14472;56.880;16.658;2024-03-02T04:43:33;5.30;99.90
26907;DHT22;14472;56.880;16.658;2024-03-02T04:45:59;5.30;99.90
26907;DHT22;14472;56.880;16.658;2024-03-02T04:48:25;5.30;99.90
26907;DHT22;14472;56.880;16.658;2024-03-02T04:50:51;5.30;99.90
26907;DHT22;14472;56.880;16.658;2024-03-02T04:53:16;5.30;99.90
26907;DHT22;14472;56.880;16.658;2024-03-02T04:55:42;5.30;99.90
26907;DHT22;14472;56.880;16.658;2024-03-02T04:58:08;5.30;99.90
26907;DHT22;14472;56.880;16.658;2024-03-02T05:00:34;5.30;99.90
26907;DHT22;14472;56.880;16.658;2024-03-02T05:03:00;5.30;99.90
26907;DHT22;14472;56.880;16.658;2024-03-02T05:05:26;5.30;99.90
26907;DHT22;14472;56.880;16.658;2024-03-02T05:07:52;5.30;99.90
26907;DHT22;14472;56.880;16.658;2024-03-02T05:10:18;5.30;99.90
26907;DHT22;14472;56.880;16.658;2024-03-02T05:12:44;5.30;99.90
26907;DHT22;14472;56.880;16.658;2024-03-02T05:15:14;5.30;99.90
26907;DHT22;14472;56.880;16.658;2024-03-02T05:17:40;5.30;99.90
26907;DHT22;14472;56.880;16.658;2024-03-02T05:20:09;5.30;99.90
26907;DHT22;14472;56.880;16.658;2024-03-02T05:22:35;5.30;99.90
26907;DHT22;14472;56.880;16.658;2024-03-02T05:25:01;5.30;99.90
26907;DHT22;14472;56.880;16.658;2024-03-02T05:27:28;5.30;99.90
26907;DHT22;14472;56.880;16.658;2024-03-02T05:29:53;5.30;99.90
26907;DHT22;14472;56.880;16.658;2024-03-02T05:32:19;5.30;99.90
26907;DHT22;14472;56.880;16.658;2024-03-02T05:34:45;5.20;99.90
26907;DHT22;14472;56.880;16.658;2024-03-02T05:37:10;5.20;99.90
26907;DHT22;14472;56.880;16.658;2024-03-02T05:39:36;5.30;99.90
26907;DHT22;14472;56.880;16.658;2024-03-02T05:42:02;5.30;99.90
26907;DHT22;14472;56.880;16.658;2024-03-02T05:44:28;5.20;99.90
26907;DHT22;14472;56.880;16.658;2024-03-02T05:46:54;5.30;99.90
26907;DHT22;14472;56.880;16.658;2024-03-02T05:49:20;5.20;99.90
26907;DHT22;14472;56.880;16.658;2024-03-02T05:51:46;5.30;99.90
26907;DHT22;14472;56.880;16.658;2024-03-02T05:54:12;5.30;99.90
26907;DHT22;14472;56.880;16.658;2024-03-02T05:56:37;5.30;99.90
26907;DHT22;14472;56.880;16.658;2024-03-02T05:59:03;5.30;99.90
26907;DHT22;14472;56.880;16.658;2024-03-02T06:01:45;5.30;99.90
26907;DHT22;14472;56.880;16.658;2024-03-02T06:04:17;5.30;99.90
26907;DHT22;14472;56.880;16.658;2024-03-02T06:06:43;5.30;99.90
26907;DHT22;14472;56.880;16.658;2024-03-02T06:09:09;5.30;99.90
26907;DHT22;14472;56.880;16.658;2024-03-02T06:11:39;5.30;99.90
26907;DHT22;14472;56.880;16.658;2024-03-02T06:14:08;5.20;99.90
26907;DHT22;14472;56.880;16.658;2024-03-02T06:16:34;5.20;99.90
26907;DHT22;14472;56.880;16.658;2024-03-02T06:19:00;5.20;99.90
26907;DHT22;14472;56.880;16.658;2024-03-02T06:21:26;5.50;99.90
26907;DHT22;14472;56.880;16.658;2024-03-02T06:23:52;5.50;99.90
26907;DHT22;14472;56.880;16.658;2024-03-02T06:26:18;5.30;99.90
26907;DHT22;14472;56.880;16.658;2024-03-02T06:28:45;5.30;99.90
26907;DHT22;14472;56.880;16.658;2024-03-02T06:31:10;5.60;99.90
26907;DHT22;14472;56.880;16.658;2024-03-02T06:33:36;5.70;99.90
26907;DHT22;14472;56.880;16.658;2024-03-02T06:36:02;5.50;99.90
26907;DHT22;14472;56.880;16.658;2024-03-02T06:38:28;5.40;99.90
26907;DHT22;14472;56.880;16.658;2024-03-02T06:40:54;5.40;99.90
26907;DHT22;14472;56.880;16.658;2024-03-02T06:43:23;5.50;99.90
26907;DHT22;14472;56.880;16.658;2024-03-02T06:45:49;5.50;99.90
26907;DHT22;14472;56.880;16.658;2024-03-02T06:48:16;5.70;99.90
26907;DHT22;14472;56.880;16.658;2024-03-02T06:50:49;5.60;99.90
26907;DHT22;14472;56.880;16.658;2024-03-02T06:53:15;5.60;99.90
26907;DHT22;14472;56.880;16.658;2024-03-02T06:55:45;5.70;99.90
26907;DHT22;14472;56.880;16.658;2024-03-02T06:58:12;5.60;99.90
26907;DHT22;14472;56.880;16.658;2024-03-02T07:00:38;5.90;99.90
26907;DHT22;14472;56.880;16.658;2024-03-02T07:03:04;5.70;99.90
26907;DHT22;14472;56.880;16.658;2024-03-02T07:05:29;5.60;99.90
26907;DHT22;14472;56.880;16.658;2024-03-02T07:07:55;5.70;99.90
26907;DHT22;14472;56.880;16.658;2024-03-02T07:10:21;5.70;99.90
26907;DHT22;14472;56.880;16.658;2024-03-02T07:12:46;5.90;99.90
26907;DHT22;14472;56.880;16.658;2024-03-02T07:15:12;5.80;99.90
26907;DHT22;14472;56.880;16.658;2024-03-02T07:17:55;5.80;99.90
26907;DHT22;14472;56.880;16.658;2024-03-02T07:20:20;5.90;99.90
26907;DHT22;14472;56.880;16.658;2024-03-02T07:22:46;5.90;99.90
26907;DHT22;14472;56.880;16.658;2024-03-02T07:25:12;6.10;99.90
26907;DHT22;14472;56.880;16.658;2024-03-02T07:27:39;6.00;99.90
26907;DHT22;14472;56.880;16.658;2024-03-02T07:30:05;6.10;99.90
26907;DHT22;14472;56.880;16.658;2024-03-02T07:32:31;6.00;99.90
26907;DHT22;14472;56.880;16.658;2024-03-02T07:34:56;6.00;99.90
26907;DHT22;14472;56.880;16.658;2024-03-02T07:37:23;6.20;99.90
26907;DHT22;14472;56.880;16.658;2024-03-02T07:39:50;6.10;99.90
26907;DHT22;14472;56.880;16.658;2024-03-02T07:42:16;6.10;99.90
26907;DHT22;14472;56.880;16.658;2024-03-02T07:44:41;6.00;99.90
26907;DHT22;14472;56.880;16.658;2024-03-02T07:47:09;6.00;99.90
26907;DHT22;14472;56.880;16.658;2024-03-02T07:49:35;6.00;99.90
26907;DHT22;14472;56.880;16.658;2024-03-02T07:52:00;6.20;99.90
26907;DHT22;14472;56.880;16.658;2024-03-02T07:54:26;6.30;99.90
26907;DHT22;14472;56.880;16.658;2024-03-02T07:56:52;6.00;99.90
26907;DHT22;14472;56.880;16.658;2024-03-02T07:59:17;5.90;99.90
26907;DHT22;14472;56.880;16.658;2024-03-02T08:01:43;5.90;99.90
26907;DHT22;14472;56.880;16.658;2024-03-02T08:04:09;6.10;99.90
26907;DHT22;14472;56.880;16.658;2024-03-02T08:06:35;6.20;99.90
26907;DHT22;14472;56.880;16.658;2024-03-02T08:09:01;5.90;99.90
26907;DHT22;14472;56.880;16.658;2024-03-02T08:11:27;5.90;99.90
26907;DHT22;14472;56.880;16.658;2024-03-02T08:13:53;5.90;99.90
26907;DHT22;14472;56.880;16.658;2024-03-02T08:16:22;5.90;99.90
26907;DHT22;14472;56.880;16.658;2024-03-02T08:18:49;6.00;99.90
26907;DHT22;14472;56.880;16.658;2024-03-02T08:21:15;6.00;99.90
26907;DHT22;14472;56.880;16.658;2024-03-02T08:23:42;6.00;99.90
26907;DHT22;14472;56.880;16.658;2024-03-02T08:26:11;5.90;99.90
26907;DHT22;14472;56.880;16.658;2024-03-02T08:28:37;5.70;99.90
26907;DHT22;14472;56.880;16.658;2024-03-02T08:31:04;5.70;99.90
26907;DHT22;14472;56.880;16.658;2024-03-02T08:33:30;5.80;99.90
26907;DHT22;14472;56.880;16.658;2024-03-02T08:35:56;5.90;99.90
26907;DHT22;14472;56.880;16.658;2024-03-02T08:38:23;5.90;99.90
26907;DHT22;14472;56.880;16.658;2024-03-02T08:40:50;5.90;99.90
26907;DHT22;14472;56.880;16.658;2024-03-02T08:43:15;5.90;99.90
26907;DHT22;14472;56.880;16.658;2024-03-02T08:45:41;5.90;99.90
26907;DHT22;14472;56.880;16.658;2024-03-02T08:48:07;6.00;99.90
26907;DHT22;14472;56.880;16.658;2024-03-02T08:50:36;5.90;99.90
26907;DHT22;14472;56.880;16.658;2024-03-02T08:53:03;6.00;99.90
26907;DHT22;14472;56.880;16.658;2024-03-02T08:55:29;6.00;99.90
26907;DHT22;14472;56.880;16.658;2024-03-02T08:57:55;6.10;99.90
26907;DHT22;14472;56.880;16.658;2024-03-02T09:00:21;6.10;99.90
26907;DHT22;14472;56.880;16.658;2024-03-02T09:02:47;6.00;99.90
26907;DHT22;14472;56.880;16.658;2024-03-02T09:05:13;6.00;99.90
26907;DHT22;14472;56.880;16.658;2024-03-02T09:07:39;6.10;99.90
26907;DHT22;14472;56.880;16.658;2024-03-02T09:10:05;6.10;99.90
26907;DHT22;14472;56.880;16.658;2024-03-02T09:12:32;6.10;99.90
26907;DHT22;14472;56.880;16.658;2024-03-02T09:14:58;6.10;99.90
26907;DHT22;14472;56.880;16.658;2024-03-02T09:17:24;6.00;99.90
26907;DHT22;14472;56.880;16.658;2024-03-02T09:19:49;6.00;99.90
26907;DHT22;14472;56.880;16.658;2024-03-02T09:22:18;6.00;99.90
26907;DHT22;14472;56.880;16.658;2024-03-02T09:24:44;6.00;99.90
26907;DHT22;14472;56.880;16.658;2024-03-02T09:27:10;6.00;99.90
26907;DHT22;14472;56.880;16.658;2024-03-02T09:29:35;6.00;99.90
26907;DHT22;14472;56.880;16.658;2024-03-02T09:32:01;6.00;99.90
26907;DHT22;14472;56.880;16.658;2024-03-02T09:34:27;6.10;99.90
26907;DHT22;14472;56.880;16.658;2024-03-02T09:36:53;6.10;99.90
26907;DHT22;14472;56.880;16.658;2024-03-02T09:39:19;6.10;99.90
26907;DHT22;14472;56.880;16.658;2024-03-02T09:41:45;6.10;99.90
26907;DHT22;14472;56.880;16.658;2024-03-02T09:44:12;6.10;99.90
26907;DHT22;14472;56.880;16.658;2024-03-02T09:46:38;6.20;99.90
26907;DHT22;14472;56.880;16.658;2024-03-02T09:49:04;6.20;99.90
26907;DHT22;14472;56.880;16.658;2024-03-02T09:51:31;6.20;99.90
26907;DHT22;14472;56.880;16.658;2024-03-02T09:53:56;6.20;99.90
26907;DHT22;14472;56.880;16.658;2024-03-02T09:56:22;6.30;99.90
26907;DHT22;14472;56.880;16.658;2024-03-02T09:58:48;6.20;99.90
26907;DHT22;14472;56.880;16.658;2024-03-02T10:01:14;6.20;99.90
26907;DHT22;14472;56.880;16.658;2024-03-02T10:03:40;6.20;99.90
26907;DHT22;14472;56.880;16.658;2024-03-02T10:06:25;6.20;99.90
26907;DHT22;14472;56.880;16.658;2024-03-02T10:08:52;6.30;99.90
26907;DHT22;14472;56.880;16.658;2024-03-02T10:11:32;6.20;99.90
26907;DHT22;14472;56.880;16.658;2024-03-02T10:14:10;6.20;99.90
26907;DHT22;14472;56.880;16.658;2024-03-02T10:16:37;6.30;99.90
26907;DHT22;14472;56.880;16.658;2024-03-02T10:19:19;6.30;99.90
26907;DHT22;14472;56.880;16.658;2024-03-02T10:21:52;6.30;99.90
26907;DHT22;14472;56.880;16.658;2024-03-02T10:24:19;6.30;99.90
26907;DHT22;14472;56.880;16.658;2024-03-02T10:26:46;6.30;99.90
26907;DHT22;14472;56.880;16.658;2024-03-02T10:29:12;6.30;99.90
26907;DHT22;14472;56.880;16.658;2024-03-02T10:31:40;6.30;99.90
26907;DHT22;14472;56.880;16.658;2024-03-02T10:34:06;6.20;99.90
26907;DHT22;14472;56.880;16.658;2024-03-02T10:36:36;6.30;99.90
26907;DHT22;14472;56.880;16.658;2024-03-02T10:39:06;6.30;99.90
26907;DHT22;14472;56.880;16.658;2024-03-02T10:41:37;6.30;99.90
26907;DHT22;14472;56.880;16.658;2024-03-02T10:44:04;6.30;99.90
26907;DHT22;14472;56.880;16.658;2024-03-02T10:46:32;6.30;99.90
26907;DHT22;14472;56.880;16.658;2024-03-02T10:48:59;6.30;99.90
26907;DHT22;14472;56.880;16.658;2024-03-02T10:51:27;6.40;99.90
26907;DHT22;14472;56.880;16.658;2024-03-02T10:53:54;6.40;99.90
26907;DHT22;14472;56.880;16.658;2024-03-02T10:56:46;6.40;99.90
26907;DHT22;14472;56.880;16.658;2024-03-02T10:59:39;6.50;99.90
26907;DHT22;14472;56.880;16.658;2024-03-02T11:02:11;6.40;99.90
26907;DHT22;14472;56.880;16.658;2024-03-02T11:04:38;6.40;99.90
26907;DHT22;14472;56.880;16.658;2024-03-02T11:07:10;6.40;99.90
26907;DHT22;14472;56.880;16.658;2024-03-02T11:09:41;6.50;99.90
26907;DHT22;14472;56.880;16.658;2024-03-02T11:12:19;6.50;99.90
26907;DHT22;14472;56.880;16.658;2024-03-02T11:14:48;6.50;99.90
26907;DHT22;14472;56.880;16.658;2024-03-02T11:17:17;6.50;99.90
26907;DHT22;14472;56.880;16.658;2024-03-02T11:19:44;6.50;99.90
26907;DHT22;14472;56.880;16.658;2024-03-02T11:22:14;6.50;99.90
26907;DHT22;14472;56.880;16.658;2024-03-02T11:24:51;6.50;99.90
26907;DHT22;14472;56.880;16.658;2024-03-02T11:33:00;6.50;99.90
26907;DHT22;14472;56.880;16.658;2024-03-02T11:35:29;6.50;99.90
26907;DHT22;14472;56.880;16.658;2024-03-02T11:37:54;6.40;99.90
26907;DHT22;14472;56.880;16.658;2024-03-02T11:40:24;6.50;99.90
26907;DHT22;14472;56.880;16.658;2024-03-02T11:42:50;6.50;99.90
26907;DHT22;14472;56.880;16.658;2024-03-02T11:45:17;6.50;99.90
26907;DHT22;14472;56.880;16.658;2024-03-02T11:47:50;6.40;99.90
26907;DHT22;14472;56.880;16.658;2024-03-02T11:50:29;6.50;99.90
26907;DHT22;14472;56.880;16.658;2024-03-02T11:52:56;6.60;99.90
26907;DHT22;14472;56.880;16.658;2024-03-02T11:55:24;6.50;99.90
26907;DHT22;14472;56.880;16.658;2024-03-02T11:57:52;6.50;99.90
26907;DHT22;14472;56.880;16.658;2024-03-02T12:00:19;6.60;99.90
26907;DHT22;14472;56.880;16.658;2024-03-02T12:02:46;6.60;99.90
26907;DHT22;14472;56.880;16.658;2024-03-02T12:05:18;6.60;99.90
26907;DHT22;14472;56.880;16.658;2024-03-02T12:07:44;6.60;99.90
26907;DHT22;14472;56.880;16.658;2024-03-02T12:10:12;6.60;99.90
26907;DHT22;14472;56.880;16.658;2024-03-02T12:12:37;6.60;99.90
26907;DHT22;14472;56.880;16.658;2024-03-02T12:15:03;6.60;99.90
26907;DHT22;14472;56.880;16.658;2024-03-02T12:17:29;6.60;99.90
26907;DHT22;14472;56.880;16.658;2024-03-02T12:19:55;6.50;99.90
26907;DHT22;14472;56.880;16.658;2024-03-02T12:22:21;6.50;99.90
26907;DHT22;14472;56.880;16.658;2024-03-02T12:24:47;6.60;99.90
26907;DHT22;14472;56.880;16.658;2024-03-02T12:27:15;6.40;99.90
26907;DHT22;14472;56.880;16.658;2024-03-02T12:29:41;6.40;99.90
26907;DHT22;14472;56.880;16.658;2024-03-02T12:32:06;6.60;99.90
26907;DHT22;14472;56.880;16.658;2024-03-02T12:34:33;6.40;99.90
26907;DHT22;14472;56.880;16.658;2024-03-02T12:36:58;6.50;99.90
26907;DHT22;14472;56.880;16.658;2024-03-02T12:39:24;6.30;99.90
26907;DHT22;14472;56.880;16.658;2024-03-02T12:41:51;6.60;99.90
26907;DHT22;14472;56.880;16.658;2024-03-02T12:44:17;6.50;99.90
26907;DHT22;14472;56.880;16.658;2024-03-02T12:46:46;6.50;99.90
26907;DHT22;14472;56.880;16.658;2024-03-02T12:49:14;6.60;99.90
26907;DHT22;14472;56.880;16.658;2024-03-02T12:51:41;6.50;99.90
26907;DHT22;14472;56.880;16.658;2024-03-02T12:54:09;6.70;99.90
26907;DHT22;14472;56.880;16.658;2024-03-02T12:56:38;6.60;99.90
26907;DHT22;14472;56.880;16.658;2024-03-02T12:59:05;6.60;99.90
26907;DHT22;14472;56.880;16.658;2024-03-02T13:01:31;6.70;99.90
26907;DHT22;14472;56.880;16.658;2024-03-02T13:03:58;6.80;99.90
26907;DHT22;14472;56.880;16.658;2024-03-02T13:06:24;6.80;99.90
26907;DHT22;14472;56.880;16.658;2024-03-02T13:08:53;6.70;99.90
26907;DHT22;14472;56.880;16.658;2024-03-02T13:11:19;6.70;99.90
26907;DHT22;14472;56.880;16.658;2024-03-02T13:13:46;6.60;99.90
26907;DHT22;14472;56.880;16.658;2024-03-02T13:16:12;6.80;99.90
26907;DHT22;14472;56.880;16.658;2024-03-02T13:18:39;6.70;99.90
26907;DHT22;14472;56.880;16.658;2024-03-02T13:21:06;6.70;99.90
26907;DHT22;14472;56.880;16.658;2024-03-02T13:23:32;6.70;99.90
26907;DHT22;14472;56.880;16.658;2024-03-02T13:25:58;6.70;99.90
26907;DHT22;14472;56.880;16.658;2024-03-02T13:28:27;6.90;99.90
26907;DHT22;14472;56.880;16.658;2024-03-02T13:30:53;6.80;99.90
26907;DHT22;14472;56.880;16.658;2024-03-02T13:33:19;6.80;99.90
26907;DHT22;14472;56.880;16.658;2024-03-02T13:35:49;6.90;99.90
26907;DHT22;14472;56.880;16.658;2024-03-02T13:38:19;7.00;99.90
26907;DHT22;14472;56.880;16.658;2024-03-02T13:40:46;7.00;99.90
26907;DHT22;14472;56.880;16.658;2024-03-02T13:43:12;6.80;99.90
26907;DHT22;14472;56.880;16.658;2024-03-02T13:45:41;6.90;99.90
26907;DHT22;14472;56.880;16.658;2024-03-02T13:48:07;6.90;99.90
26907;DHT22;14472;56.880;16.658;2024-03-02T13:50:33;7.10;99.90
26907;DHT22;14472;56.880;16.658;2024-03-02T13:52:58;7.00;99.90
26907;DHT22;14472;56.880;16.658;2024-03-02T13:55:24;6.90;99.90
26907;DHT22;14472;56.880;16.658;2024-03-02T13:57:50;6.80;99.90
26907;DHT22;14472;56.880;16.658;2024-03-02T14:00:17;7.00;99.90
26907;DHT22;14472;56.880;16.658;2024-03-02T14:02:43;7.10;99.90
26907;DHT22;14472;56.880;16.658;2024-03-02T14:05:09;6.90;99.90
26907;DHT22;14472;56.880;16.658;2024-03-02T14:07:41;6.90;99.90
26907;DHT22;14472;56.880;16.658;2024-03-02T14:10:07;6.90;99.90
26907;DHT22;14472;56.880;16.658;2024-03-02T14:12:33;7.10;99.90
26907;DHT22;14472;56.880;16.658;2024-03-02T14:14:59;7.00;99.90
26907;DHT22;14472;56.880;16.658;2024-03-02T14:17:26;6.80;99.90
26907;DHT22;14472;56.880;16.658;2024-03-02T14:19:52;6.80;99.90
26907;DHT22;14472;56.880;16.658;2024-03-02T14:22:19;6.90;99.90
26907;DHT22;14472;56.880;16.658;2024-03-02T14:24:45;7.00;99.90
26907;DHT22;14472;56.880;16.658;2024-03-02T14:27:11;6.80;99.90
26907;DHT22;14472;56.880;16.658;2024-03-02T14:29:38;6.80;99.90
26907;DHT22;14472;56.880;16.658;2024-03-02T14:32:05;6.80;99.90
26907;DHT22;14472;56.880;16.658;2024-03-02T14:34:31;6.90;99.90
26907;DHT22;14472;56.880;16.658;2024-03-02T14:36:57;6.80;99.90
26907;DHT22;14472;56.880;16.658;2024-03-02T14:39:23;6.60;99.90
26907;DHT22;14472;56.880;16.658;2024-03-02T14:41:48;6.60;99.90
26907;DHT22;14472;56.880;16.658;2024-03-02T14:44:14;6.50;99.90
26907;DHT22;14472;56.880;16.658;2024-03-02T14:46:41;6.70;99.90
26907;DHT22;14472;56.880;16.658;2024-03-02T14:49:07;6.50;99.90
26907;DHT22;14472;56.880;16.658;2024-03-02T14:51:33;6.50;99.90
26907;DHT22;14472;56.880;16.658;2024-03-02T14:53:59;6.50;99.90
26907;DHT22;14472;56.880;16.658;2024-03-02T14:56:24;6.50;99.90
26907;DHT22;14472;56.880;16.658;2024-03-02T14:58:50;6.70;99.90
26907;DHT22;14472;56.880;16.658;2024-03-02T15:01:16;6.40;99.90
26907;DHT22;14472;56.880;16.658;2024-03-02T15:03:43;6.40;99.90
26907;DHT22;14472;56.880;16.658;2024-03-02T15:06:09;6.40;99.90
26907;DHT22;14472;56.880;16.658;2024-03-02T15:08:35;6.50;99.90
26907;DHT22;14472;56.880;16.658;2024-03-02T15:11:01;6.40;99.90
26907;DHT22;14472;56.880;16.658;2024-03-02T15:13:29;6.30;99.90
26907;DHT22;14472;56.880;16.658;2024-03-02T15:15:55;6.30;99.90
26907;DHT22;14472;56.880;16.658;2024-03-02T15:18:20;6.20;99.90
26907;DHT22;14472;56.880;16.658;2024-03-02T15:20:46;6.30;99.90
26907;DHT22;14472;56.880;16.658;2024-03-02T15:23:12;6.30;99.90
26907;DHT22;14472;56.880;16.658;2024-03-02T15:25:37;6.20;99.90
26907;DHT22;14472;56.880;16.658;2024-03-02T15:28:03;6.30;99.90
26907;DHT22;14472;56.880;16.658;2024-03-02T15:30:29;6.10;99.90
26907;DHT22;14472;56.880;16.658;2024-03-02T15:32:54;6.30;99.90
26907;DHT22;14472;56.880;16.658;2024-03-02T15:35:20;6.20;99.90